Terminal Aerodrome Forecast
Issued by NWS Wilmington, NC

Home | Current Version | Previous Version | Text Only | Print | Product List | Glossary On
Versions: 1 2 3 4 5 6 7 8 9 10 11 12 13 14 15 16 17 18
000
FTUS42 KILM 251100
TAFFLO
TAF
KFLO 251128Z 2512/2612 25004KT P6SM SKC
     FM251700 18009KT P6SM SKC
     FM252200 18006KT P6SM FEW120 SCT250
     FM260700 21008KT P6SM SCT045 BKN100=

USA.gov is the U.S. government's official web portal to all federal, state and local government web resources and services.